Terminal Aerodrome Forecast
Issued by NWS Wilmington, OH

Current Version | Previous Version | Graphics & Text | Print | Product List | Glossary On
Versions: 1 2 3 4 5 6 7 8 9 10 11 12 13 14 15 16 17 18 19 20 21
000
FTUS41 KILN 231700
TAFCMH
TAF
KCMH 231729Z 2318/2418 15006KT P6SM OVC015
     FM240100 13005KT 5SM -SHRA BR OVC011
     FM240700 14009KT 5SM BR OVC009
     FM241300 14012KT 5SM BR VCSH OVC013
     FM241700 17015G23KT 5SM -SHRA BR OVC012=

USA.gov is the U.S. government's official web portal to all federal, state and local government web resources and services.